createdAt,value
2023-03-06T00:00:10.966Z,7.05
2023-03-06T00:02:38.147Z,7.30
2023-03-06T00:05:05.513Z,6.93
2023-03-06T00:07:32.709Z,7.35
2023-03-06T00:09:59.916Z,6.85
2023-03-06T00:12:27.622Z,7.90
2023-03-06T00:14:54.808Z,7.20
2023-03-06T00:17:22.026Z,7.40
2023-03-06T00:19:49.198Z,8.20
2023-03-06T00:22:16.940Z,6.90
2023-03-06T00:24:45.307Z,6.35
2023-03-06T00:27:12.500Z,7.25
2023-03-06T00:29:39.661Z,7.65
2023-03-06T00:32:07.063Z,7.53
2023-03-06T00:34:34.270Z,7.38
2023-03-06T00:37:01.469Z,6.70
2023-03-06T00:39:28.684Z,7.38
2023-03-06T00:41:55.882Z,6.90
2023-03-06T00:44:23.039Z,7.30
2023-03-06T00:46:50.219Z,7.07
2023-03-06T00:49:18.534Z,6.55
2023-03-06T00:51:45.765Z,7.18
2023-03-06T00:54:13.055Z,6.60
2023-03-06T00:56:40.180Z,6.32
2023-03-06T00:59:08.838Z,6.10
2023-03-06T01:01:36.046Z,6.68
2023-03-06T01:04:03.274Z,6.60
2023-03-06T01:06:30.500Z,6.50
2023-03-06T01:08:57.912Z,6.20
2023-03-06T01:11:25.181Z,6.78
2023-03-06T01:13:52.342Z,6.10
2023-03-06T01:16:21.243Z,5.60
2023-03-06T01:18:48.812Z,6.72
2023-03-06T01:21:16.014Z,6.00
2023-03-06T01:23:43.448Z,6.00
2023-03-06T01:26:10.739Z,6.10
2023-03-06T01:28:39.143Z,6.10
2023-03-06T01:31:06.704Z,5.93
2023-03-06T01:33:34.216Z,6.40
2023-03-06T01:36:03.902Z,5.93
2023-03-06T01:38:31.137Z,5.45
2023-03-06T01:40:58.487Z,6.15
2023-03-06T01:43:26.188Z,5.55
2023-03-06T01:45:53.409Z,5.40
2023-03-06T01:48:22.248Z,5.78
2023-03-06T01:50:50.525Z,5.20
2023-03-06T01:53:17.871Z,5.95
2023-03-06T01:55:45.248Z,5.57
2023-03-06T01:58:14.403Z,6.25
2023-03-06T02:00:41.564Z,5.85
2023-03-06T02:03:10.983Z,6.00
2023-03-06T02:05:38.658Z,7.05
2023-03-06T02:08:06.486Z,5.78
2023-03-06T02:10:33.859Z,5.72
2023-03-06T02:13:01.236Z,6.07
2023-03-06T02:15:29.261Z,5.57
2023-03-06T02:17:56.606Z,6.43
2023-03-06T02:20:26.590Z,5.85
2023-03-06T02:22:53.719Z,5.35
2023-03-06T02:25:29.881Z,4.63
2023-03-06T02:27:57.077Z,5.32
2023-03-06T02:30:25.998Z,5.85
2023-03-06T02:32:53.314Z,5.43
2023-03-06T02:35:23.584Z,5.03
2023-03-06T02:37:50.851Z,5.40
2023-03-06T02:40:18.716Z,5.43
2023-03-06T02:42:49.881Z,5.65
2023-03-06T02:45:19.880Z,5.30
2023-03-06T02:47:47.016Z,5.18
2023-03-06T02:50:14.240Z,5.40
2023-03-06T02:52:41.470Z,5.20
2023-03-06T02:55:09.097Z,5.80
2023-03-06T02:57:36.334Z,5.50
2023-03-06T03:00:03.815Z,5.22
2023-03-06T03:02:30.962Z,5.18
2023-03-06T03:04:58.139Z,5.50
2023-03-06T03:07:25.308Z,5.32
2023-03-06T03:09:52.465Z,4.72
2023-03-06T03:12:19.691Z,5.05
2023-03-06T03:14:46.866Z,4.90
2023-03-06T03:17:14.002Z,5.18
2023-03-06T03:19:41.305Z,4.95
2023-03-06T03:22:08.480Z,5.05
2023-03-06T03:24:35.773Z,4.90
2023-03-06T03:27:03.076Z,4.80
2023-03-06T03:29:30.268Z,5.28
2023-03-06T03:31:57.440Z,5.00
2023-03-06T03:34:24.615Z,5.32
2023-03-06T03:36:51.829Z,4.80
2023-03-06T03:39:19.832Z,4.85
2023-03-06T03:41:47.256Z,5.00
2023-03-06T03:44:14.416Z,5.10
2023-03-06T03:46:41.602Z,4.57
2023-03-06T03:49:08.804Z,5.18
2023-03-06T03:51:36.018Z,4.95
2023-03-06T03:54:03.323Z,5.15
2023-03-06T03:56:30.570Z,5.40
2023-03-06T03:58:57.805Z,5.40
2023-03-06T04:01:25.013Z,4.88
2023-03-06T04:03:52.192Z,5.03
2023-03-06T04:06:19.472Z,4.85
2023-03-06T04:08:46.673Z,5.35
2023-03-06T04:11:13.854Z,4.50
2023-03-06T04:13:41.030Z,5.20
2023-03-06T04:16:08.449Z,4.90
2023-03-06T04:18:35.740Z,5.07
2023-03-06T04:21:02.958Z,5.28
2023-03-06T04:23:30.113Z,4.70
2023-03-06T04:25:57.302Z,5.55
2023-03-06T04:28:24.913Z,4.50
2023-03-06T04:30:52.068Z,4.90
2023-03-06T04:33:19.257Z,5.22
2023-03-06T04:35:46.486Z,5.13
2023-03-06T04:38:13.998Z,5.18
2023-03-06T04:40:42.583Z,5.45
2023-03-06T04:43:11.043Z,4.88
2023-03-06T04:45:38.279Z,4.75
2023-03-06T04:48:05.571Z,4.55
2023-03-06T04:50:32.775Z,5.03
2023-03-06T04:53:04.720Z,4.90
2023-03-06T04:55:32.010Z,5.18
2023-03-06T04:57:59.261Z,4.88
2023-03-06T05:00:33.492Z,4.88
2023-03-06T05:03:01.677Z,4.88
2023-03-06T05:05:29.420Z,4.88
2023-03-06T05:07:56.851Z,5.20
2023-03-06T05:10:24.598Z,4.88
2023-03-06T05:12:51.980Z,5.00
2023-03-06T05:15:19.227Z,5.00
2023-03-06T05:17:47.483Z,5.15
2023-03-06T05:20:15.276Z,4.88
2023-03-06T05:22:42.478Z,4.93
2023-03-06T05:25:10.702Z,5.57
2023-03-06T05:27:38.265Z,4.50
2023-03-06T05:30:05.716Z,5.10
2023-03-06T05:32:35.484Z,5.10
2023-03-06T05:35:03.084Z,4.47
2023-03-06T05:37:30.589Z,5.10
2023-03-06T05:39:57.980Z,4.35
2023-03-06T05:42:26.829Z,5.70
2023-03-06T05:44:55.437Z,5.22
2023-03-06T05:47:22.610Z,5.47
2023-03-06T05:49:49.882Z,5.07
2023-03-06T05:52:17.644Z,5.13
2023-03-06T05:54:45.201Z,5.10
2023-03-06T05:57:13.642Z,5.47
2023-03-06T05:59:40.940Z,4.68
2023-03-06T06:02:08.130Z,5.07
2023-03-06T06:04:35.297Z,5.10
2023-03-06T06:07:02.482Z,5.28
2023-03-06T06:09:29.717Z,4.97
2023-03-06T06:12:01.468Z,5.70
2023-03-06T06:14:29.482Z,4.90
2023-03-06T06:16:56.713Z,5.15
2023-03-06T06:19:23.923Z,4.70
2023-03-06T06:21:52.384Z,5.32
2023-03-06T06:24:21.233Z,5.47
2023-03-06T06:26:50.334Z,5.53
2023-03-06T06:29:17.921Z,5.28
2023-03-06T06:31:45.302Z,5.50
2023-03-06T06:34:12.838Z,4.75
2023-03-06T06:36:40.071Z,5.45
2023-03-06T06:39:08.232Z,4.80
2023-03-06T06:41:53.594Z,5.35
2023-03-06T06:44:22.942Z,4.75
2023-03-06T06:47:21.448Z,5.38
2023-03-06T06:49:38.063Z,5.07
2023-03-06T06:52:05.441Z,5.70
2023-03-06T06:54:36.308Z,4.93
2023-03-06T06:57:03.443Z,7.47
2023-03-06T06:59:30.590Z,6.35
2023-03-06T07:01:57.775Z,6.72
2023-03-06T07:04:25.021Z,6.05
2023-03-06T07:06:52.220Z,6.47
2023-03-06T07:09:20.082Z,6.22
2023-03-06T07:11:47.277Z,6.63
2023-03-06T07:14:14.621Z,5.90
2023-03-06T07:16:42.040Z,5.85
2023-03-06T07:19:09.422Z,6.68
2023-03-06T07:21:36.634Z,6.28
2023-03-06T07:24:04.691Z,6.93
2023-03-06T07:26:34.488Z,6.82
2023-03-06T07:29:03.558Z,6.57
2023-03-06T07:31:31.201Z,6.35
2023-03-06T07:33:58.550Z,6.43
2023-03-06T07:36:25.870Z,5.90
2023-03-06T07:38:53.020Z,6.60
2023-03-06T07:41:22.506Z,6.18
2023-03-06T07:43:50.145Z,6.93
2023-03-06T07:46:17.478Z,6.63
2023-03-06T07:48:44.809Z,6.68
2023-03-06T07:51:16.395Z,7.07
2023-03-06T07:53:43.950Z,6.90
2023-03-06T07:56:11.873Z,6.82
2023-03-06T07:58:39.925Z,7.28
2023-03-06T08:01:08.061Z,6.57
2023-03-06T08:03:35.294Z,6.93
2023-03-06T08:06:06.775Z,7.00
2023-03-06T08:08:34.976Z,6.80
2023-03-06T08:11:02.212Z,6.68
2023-03-06T08:13:29.357Z,6.78
2023-03-06T08:15:56.852Z,6.90
2023-03-06T08:18:24.332Z,6.65
2023-03-06T08:20:51.472Z,7.43
2023-03-06T08:23:18.680Z,7.32
2023-03-06T08:25:45.882Z,6.45
2023-03-06T08:28:13.075Z,7.90
2023-03-06T08:30:40.423Z,6.85
2023-03-06T08:33:07.664Z,7.55
2023-03-06T08:35:34.852Z,7.05
2023-03-06T08:38:02.023Z,8.02
2023-03-06T08:40:30.506Z,7.20
2023-03-06T08:42:57.804Z,7.60
2023-03-06T08:45:25.010Z,7.97
2023-03-06T08:47:52.180Z,7.55
2023-03-06T08:50:19.372Z,7.65
2023-03-06T08:52:46.592Z,7.05
2023-03-06T08:55:15.153Z,7.07
2023-03-06T08:57:42.389Z,7.25
2023-03-06T09:00:10.897Z,7.53
2023-03-06T09:02:38.133Z,8.00
2023-03-06T09:05:09.172Z,6.78
2023-03-06T09:07:36.568Z,8.13
2023-03-06T09:10:03.938Z,8.30
2023-03-06T09:12:37.367Z,7.15
2023-03-06T09:15:15.100Z,8.88
2023-03-06T09:17:42.371Z,8.63
2023-03-06T09:20:10.638Z,8.23
2023-03-06T09:22:38.025Z,8.68
2023-03-06T09:25:06.501Z,8.70
2023-03-06T09:27:33.825Z,8.20
2023-03-06T09:30:01.060Z,8.50
2023-03-06T09:32:28.472Z,7.68
2023-03-06T09:34:55.705Z,8.23
2023-03-06T09:37:23.444Z,8.52
2023-03-06T09:39:50.643Z,7.75
2023-03-06T09:42:22.094Z,8.43
2023-03-06T09:44:56.940Z,8.52
2023-03-06T09:47:24.059Z,8.43
2023-03-06T09:50:04.977Z,8.48
2023-03-06T09:52:43.474Z,8.77
2023-03-06T09:55:13.957Z,8.57
2023-03-06T09:57:43.887Z,8.65
2023-03-06T10:00:20.308Z,8.77
2023-03-06T10:02:50.985Z,9.63
2023-03-06T10:05:23.307Z,12.25
2023-03-06T10:07:50.504Z,13.45
2023-03-06T10:10:22.922Z,14.93
2023-03-06T10:12:54.428Z,16.40
2023-03-06T10:15:33.313Z,15.88
2023-03-06T10:18:00.849Z,16.98
2023-03-06T10:20:29.662Z,16.60
2023-03-06T10:23:15.765Z,16.98
2023-03-06T10:26:02.837Z,16.55
2023-03-06T10:28:37.774Z,16.45
2023-03-06T10:31:14.021Z,15.87
2023-03-06T10:33:44.288Z,16.25
2023-03-06T10:36:13.880Z,15.95
2023-03-06T10:38:41.861Z,16.58
2023-03-06T10:41:18.417Z,15.88
2023-03-06T10:43:46.296Z,16.38
2023-03-06T10:46:15.161Z,17.05
2023-03-06T10:48:42.814Z,16.35
2023-03-06T10:51:23.109Z,16.38
2023-03-06T10:53:50.439Z,17.27
2023-03-06T10:56:31.551Z,15.85
2023-03-06T10:59:07.624Z,15.30
2023-03-06T11:01:35.013Z,16.92
2023-03-06T11:04:16.051Z,16.38
2023-03-06T11:06:43.595Z,16.38
2023-03-06T11:09:19.589Z,16.75
2023-03-06T11:11:46.795Z,16.63
2023-03-06T11:14:23.298Z,15.70
2023-03-06T11:16:55.253Z,16.15
2023-03-06T11:19:27.928Z,16.23
2023-03-06T11:22:05.776Z,16.50
2023-03-06T11:24:41.445Z,16.80
2023-03-06T11:27:24.513Z,16.77
2023-03-06T11:29:54.408Z,17.67
2023-03-06T11:32:23.917Z,17.58
2023-03-06T11:34:58.083Z,17.80
2023-03-06T11:37:43.498Z,17.65
2023-03-06T11:40:32.390Z,18.07
2023-03-06T11:43:25.993Z,17.88
2023-03-06T11:46:05.137Z,17.73
2023-03-06T11:48:37.611Z,17.38
2023-03-06T11:51:19.689Z,16.42
2023-03-06T11:53:49.039Z,18.58
2023-03-06T11:56:19.650Z,16.30
2023-03-06T11:58:52.899Z,17.10
2023-03-06T12:01:23.756Z,15.63
2023-03-06T12:03:50.882Z,16.55
2023-03-06T12:06:47.541Z,16.90
2023-03-06T12:11:54.087Z,15.10
2023-03-06T12:14:21.272Z,14.65
2023-03-06T12:16:58.709Z,14.70
2023-03-06T12:19:33.210Z,15.07
2023-03-06T12:22:10.665Z,14.57
2023-03-06T12:24:56.714Z,16.20
2023-03-06T12:27:59.428Z,15.43
2023-03-06T12:30:35.276Z,14.93
2023-03-06T12:35:29.729Z,14.50
2023-03-06T12:38:12.086Z,14.32
2023-03-06T12:40:39.322Z,14.63
2023-03-06T12:43:06.423Z,16.67
2023-03-06T12:45:34.492Z,15.45
2023-03-06T12:48:02.448Z,14.23
2023-03-06T12:50:31.666Z,15.45
2023-03-06T12:53:01.458Z,16.15
2023-03-06T12:55:40.678Z,14.73
2023-03-06T12:58:30.872Z,13.52
2023-03-06T13:01:03.712Z,14.27
2023-03-06T13:03:31.275Z,13.40
2023-03-06T13:06:02.213Z,13.80
2023-03-06T13:08:52.976Z,14.50
2023-03-06T13:11:27.831Z,15.52
2023-03-06T13:13:55.470Z,15.83
2023-03-06T13:16:29.871Z,14.10
2023-03-06T13:19:04.814Z,13.40
2023-03-06T13:21:50.920Z,12.80
2023-03-06T13:24:25.578Z,13.63
2023-03-06T13:26:57.394Z,14.75
2023-03-06T13:29:36.871Z,14.70
2023-03-06T13:32:04.168Z,13.60
2023-03-06T13:34:34.233Z,14.05
2023-03-06T13:37:20.233Z,14.45
2023-03-06T13:39:59.417Z,13.02
2023-03-06T13:42:26.608Z,14.00
2023-03-06T13:44:55.120Z,12.80
2023-03-06T13:47:30.576Z,14.07
2023-03-06T13:49:58.450Z,13.30
2023-03-06T13:52:25.599Z,13.77
2023-03-06T13:54:59.431Z,12.40
2023-03-06T13:57:45.545Z,12.00
2023-03-06T14:00:19.138Z,12.88
2023-03-06T14:02:46.361Z,13.10
2023-03-06T14:05:15.226Z,13.73
2023-03-06T14:07:43.565Z,12.82
2023-03-06T14:10:24.200Z,13.82
2023-03-06T14:12:51.333Z,12.20
2023-03-06T14:15:21.001Z,13.32
2023-03-06T14:17:54.198Z,12.57
2023-03-06T14:20:22.370Z,12.48
2023-03-06T14:22:49.517Z,12.77
2023-03-06T14:25:16.709Z,13.27
2023-03-06T14:27:44.030Z,12.52
2023-03-06T14:30:16.086Z,12.68
2023-03-06T14:32:43.414Z,13.60
2023-03-06T14:35:21.410Z,12.32
2023-03-06T14:37:50.285Z,12.57
2023-03-06T14:40:20.029Z,12.68
2023-03-06T14:42:47.192Z,11.05
2023-03-06T14:45:15.899Z,11.80
2023-03-06T14:47:43.760Z,11.85
2023-03-06T14:50:24.824Z,12.82
2023-03-06T14:52:56.785Z,12.45
2023-03-06T14:55:25.271Z,12.55
2023-03-06T14:57:55.617Z,11.93
2023-03-06T15:00:23.829Z,12.38
2023-03-06T15:02:51.929Z,11.90
2023-03-06T15:05:23.508Z,11.40
2023-03-06T15:07:51.786Z,11.60
2023-03-06T15:10:26.385Z,12.43
2023-03-06T15:12:53.755Z,12.52
2023-03-06T15:15:25.384Z,12.43
2023-03-06T15:17:52.838Z,11.73
2023-03-06T15:20:38.089Z,12.00
2023-03-06T15:23:14.386Z,12.32
2023-03-06T15:25:41.618Z,11.80
2023-03-06T15:28:27.596Z,11.07
2023-03-06T15:31:21.971Z,11.45
2023-03-06T15:34:01.069Z,10.77
2023-03-06T15:36:29.797Z,10.82
2023-03-06T15:38:58.271Z,11.00
2023-03-06T15:41:36.154Z,10.88
2023-03-06T15:44:04.849Z,10.73
2023-03-06T15:46:32.044Z,11.20
2023-03-06T15:49:03.698Z,10.30
2023-03-06T15:51:33.634Z,11.93
2023-03-06T15:54:11.991Z,10.70
2023-03-06T15:56:40.724Z,10.45
2023-03-06T15:59:11.296Z,10.60
2023-03-06T16:01:38.548Z,12.20
2023-03-06T16:04:05.757Z,11.50
2023-03-06T16:06:32.933Z,10.43
2023-03-06T16:09:00.139Z,11.32
2023-03-06T16:11:32.554Z,10.93
2023-03-06T16:14:02.808Z,11.07
2023-03-06T16:16:29.954Z,10.95
2023-03-06T16:18:57.173Z,10.13
2023-03-06T16:21:24.372Z,10.68
2023-03-06T16:23:51.556Z,10.48
2023-03-06T16:26:30.204Z,11.13
2023-03-06T16:28:57.419Z,11.43
2023-03-06T16:31:24.792Z,11.05
2023-03-06T16:33:51.912Z,10.65
2023-03-06T16:36:23.130Z,10.18
2023-03-06T16:38:51.086Z,10.90
2023-03-06T16:41:19.307Z,10.18
2023-03-06T16:43:49.943Z,9.65
2023-03-06T16:46:18.527Z,11.23
2023-03-06T16:48:46.314Z,9.80
2023-03-06T16:51:15.785Z,10.15
2023-03-06T16:53:43.514Z,10.20
2023-03-06T16:56:12.252Z,9.80
2023-03-06T16:58:39.958Z,9.38
2023-03-06T17:01:08.274Z,10.07
2023-03-06T17:03:36.317Z,10.35
2023-03-06T17:06:04.725Z,8.90
2023-03-06T17:08:31.917Z,9.70
2023-03-06T17:10:59.071Z,9.27
2023-03-06T17:13:26.212Z,9.95
2023-03-06T17:15:59.027Z,9.15
2023-03-06T17:18:27.312Z,9.18
2023-03-06T17:20:54.878Z,9.00
2023-03-06T17:23:25.901Z,9.15
2023-03-06T17:25:53.563Z,9.05
2023-03-06T17:28:20.784Z,9.30
2023-03-06T17:30:47.984Z,8.50
2023-03-06T17:33:15.195Z,8.32
2023-03-06T17:35:42.321Z,8.32
2023-03-06T17:38:09.561Z,8.82
2023-03-06T17:40:37.535Z,8.88
2023-03-06T17:43:04.754Z,8.50
2023-03-06T17:45:33.703Z,8.73
2023-03-06T17:48:00.882Z,8.50
2023-03-06T17:50:28.037Z,8.30
2023-03-06T17:52:55.264Z,8.52
2023-03-06T17:55:22.542Z,8.75
2023-03-06T17:57:52.068Z,8.90
2023-03-06T18:00:20.215Z,7.85
2023-03-06T18:02:47.432Z,8.00
2023-03-06T18:05:14.722Z,8.57
2023-03-06T18:07:41.994Z,8.35
2023-03-06T18:10:09.562Z,7.78
2023-03-06T18:12:36.709Z,7.90
2023-03-06T18:15:04.050Z,8.30
2023-03-06T18:17:31.283Z,7.68
2023-03-06T18:19:58.608Z,7.80
2023-03-06T18:22:25.847Z,8.02
2023-03-06T18:24:52.995Z,8.57
2023-03-06T18:27:21.106Z,7.63
2023-03-06T18:29:48.377Z,7.80
2023-03-06T18:32:15.651Z,8.00
2023-03-06T18:34:42.797Z,7.82
2023-03-06T18:37:09.924Z,7.47
2023-03-06T18:39:37.105Z,7.25
2023-03-06T18:42:04.317Z,7.63
2023-03-06T18:44:31.526Z,7.57
2023-03-06T18:46:58.742Z,7.50
2023-03-06T18:49:25.924Z,7.78
2023-03-06T18:51:53.113Z,6.55
2023-03-06T18:54:20.344Z,7.32
2023-03-06T18:56:47.605Z,7.57
2023-03-06T18:59:18.546Z,7.03
2023-03-06T19:01:47.132Z,6.82
2023-03-06T19:04:14.485Z,6.75
2023-03-06T19:06:41.779Z,6.75
2023-03-06T19:09:10.987Z,6.78
2023-03-06T19:11:38.187Z,6.72
2023-03-06T19:14:05.530Z,6.70
2023-03-06T19:16:32.679Z,6.80
2023-03-06T19:19:00.003Z,6.60
2023-03-06T19:21:28.014Z,6.57
2023-03-06T19:23:56.084Z,6.90
2023-03-06T19:26:23.663Z,6.63
2023-03-06T19:28:52.288Z,6.78
2023-03-06T19:31:20.822Z,6.57
2023-03-06T19:33:48.903Z,6.65
2023-03-06T19:36:16.384Z,6.72
2023-03-06T19:38:43.813Z,6.50
2023-03-06T19:41:13.421Z,6.32
2023-03-06T19:43:41.207Z,6.15
2023-03-06T19:46:12.287Z,6.28
2023-03-06T19:48:39.571Z,6.28
2023-03-06T19:51:07.277Z,6.72
2023-03-06T19:53:38.843Z,6.95
2023-03-06T19:56:10.837Z,6.03
2023-03-06T19:58:38.380Z,5.97
2023-03-06T20:01:10.678Z,6.60
2023-03-06T20:03:37.867Z,6.20
2023-03-06T20:06:09.203Z,5.88
2023-03-06T20:08:37.131Z,6.80
2023-03-06T20:11:04.582Z,6.55
2023-03-06T20:13:32.059Z,6.07
2023-03-06T20:16:02.972Z,6.00
2023-03-06T20:18:30.209Z,5.85
2023-03-06T20:20:58.595Z,5.90
2023-03-06T20:23:25.796Z,5.88
2023-03-06T20:25:53.288Z,6.13
2023-03-06T20:28:20.468Z,6.20
2023-03-06T20:30:47.811Z,5.93
2023-03-06T20:33:15.430Z,6.13
2023-03-06T20:35:43.116Z,5.90
2023-03-06T20:38:10.739Z,6.30
2023-03-06T20:40:42.181Z,5.70
2023-03-06T20:43:09.471Z,6.00
2023-03-06T20:45:36.680Z,5.80
2023-03-06T20:48:03.888Z,6.35
2023-03-06T20:50:31.114Z,5.70
2023-03-06T20:52:58.941Z,5.95
2023-03-06T20:55:26.272Z,5.65
2023-03-06T20:57:53.726Z,5.82
2023-03-06T21:00:21.320Z,5.82
2023-03-06T21:02:48.599Z,6.45
2023-03-06T21:05:15.845Z,5.78
2023-03-06T21:07:43.076Z,6.57
2023-03-06T21:10:10.508Z,6.70
2023-03-06T21:12:37.761Z,5.60
2023-03-06T21:15:05.182Z,5.90
2023-03-06T21:17:32.355Z,6.03
2023-03-06T21:19:59.630Z,6.07
2023-03-06T21:22:26.843Z,8.02
2023-03-06T21:24:54.011Z,6.50
2023-03-06T21:27:21.159Z,6.43
2023-03-06T21:29:48.365Z,6.93
2023-03-06T21:32:15.662Z,7.18
2023-03-06T21:34:42.870Z,7.15
2023-03-06T21:37:10.060Z,7.00
2023-03-06T21:39:38.550Z,7.18
2023-03-06T21:42:05.846Z,6.65
2023-03-06T21:44:33.343Z,7.97
2023-03-06T21:47:00.557Z,7.07
2023-03-06T21:49:29.294Z,7.38
2023-03-06T21:51:56.880Z,6.85
2023-03-06T21:54:24.276Z,6.70
2023-03-06T21:56:51.512Z,7.13
2023-03-06T21:59:18.729Z,6.68
2023-03-06T22:01:47.472Z,8.20
2023-03-06T22:04:14.810Z,6.85
2023-03-06T22:06:42.043Z,7.45
2023-03-06T22:09:09.936Z,6.93
2023-03-06T22:11:37.400Z,7.45
2023-03-06T22:14:05.381Z,6.57
2023-03-06T22:16:33.109Z,7.60
2023-03-06T22:19:00.346Z,7.18
2023-03-06T22:21:27.574Z,7.55
2023-03-06T22:23:57.510Z,7.93
2023-03-06T22:26:25.220Z,7.30
2023-03-06T22:28:52.410Z,7.25
2023-03-06T22:31:21.330Z,7.57
2023-03-06T22:33:51.274Z,7.78
2023-03-06T22:36:18.949Z,6.97
2023-03-06T22:38:46.874Z,7.32
2023-03-06T22:41:15.346Z,8.20
2023-03-06T22:43:42.759Z,8.23
2023-03-06T22:46:13.812Z,8.52
2023-03-06T22:48:41.489Z,7.75
2023-03-06T22:51:10.064Z,7.88
2023-03-06T22:53:37.641Z,7.28
2023-03-06T22:56:05.949Z,7.47
2023-03-06T22:58:37.353Z,7.85
2023-03-06T23:01:06.070Z,7.75
2023-03-06T23:03:33.346Z,7.32
2023-03-06T23:06:00.506Z,7.72
2023-03-06T23:08:27.744Z,7.55
2023-03-06T23:10:54.924Z,7.35
2023-03-06T23:13:22.096Z,6.70
2023-03-06T23:15:49.347Z,7.30
2023-03-06T23:18:16.613Z,7.72
2023-03-06T23:20:44.846Z,7.22
2023-03-06T23:23:12.080Z,7.60
2023-03-06T23:25:39.238Z,7.63
2023-03-06T23:28:07.412Z,6.97
2023-03-06T23:30:34.629Z,7.47
2023-03-06T23:33:01.780Z,7.47
2023-03-06T23:35:28.931Z,7.78
2023-03-06T23:37:56.386Z,7.20
2023-03-06T23:40:23.528Z,7.15
2023-03-06T23:42:51.140Z,7.15
2023-03-06T23:45:18.454Z,7.40
2023-03-06T23:47:45.630Z,7.68
2023-03-06T23:50:14.030Z,8.27
2023-03-06T23:52:41.179Z,9.10
2023-03-06T23:55:09.134Z,9.68
2023-03-06T23:57:36.364Z,8.98
